createdAt,value
2023-03-06T00:00:50.394Z,1.76
2023-03-06T00:03:16.935Z,1.71
2023-03-06T00:05:43.725Z,1.71
2023-03-06T00:08:10.870Z,1.71
2023-03-06T00:10:38.042Z,1.69
2023-03-06T00:13:08.380Z,1.69
2023-03-06T00:15:35.032Z,1.68
2023-03-06T00:18:04.543Z,1.64
2023-03-06T00:20:31.538Z,1.64
2023-03-06T00:22:58.284Z,1.64
2023-03-06T00:25:25.364Z,1.63
2023-03-06T00:27:52.281Z,1.61
2023-03-06T00:30:22.397Z,1.56
2023-03-06T00:32:49.454Z,1.50
2023-03-06T00:35:16.443Z,1.44
2023-03-06T00:37:43.700Z,1.39
2023-03-06T00:40:13.865Z,1.36
2023-03-06T00:42:40.914Z,1.33
2023-03-06T00:45:07.937Z,1.28
2023-03-06T00:47:34.840Z,1.28
2023-03-06T00:50:01.517Z,1.28
2023-03-06T00:52:27.943Z,1.28
2023-03-06T00:54:54.414Z,1.22
2023-03-06T00:57:20.950Z,1.17
2023-03-06T00:59:47.509Z,1.17
2023-03-06T01:02:14.256Z,1.22
2023-03-06T01:04:40.767Z,1.23
2023-03-06T01:07:07.380Z,1.26
2023-03-06T01:09:33.837Z,1.26
2023-03-06T01:12:00.521Z,1.23
2023-03-06T01:14:27.172Z,1.25
2023-03-06T01:16:53.767Z,1.27
2023-03-06T01:19:20.230Z,1.28
2023-03-06T01:21:46.668Z,1.29
2023-03-06T01:24:13.148Z,1.29
2023-03-06T01:26:39.697Z,1.29
2023-03-06T01:29:06.411Z,1.28
2023-03-06T01:31:33.131Z,1.30
2023-03-06T01:33:59.770Z,1.26
2023-03-06T01:36:26.214Z,1.27
2023-03-06T01:38:52.654Z,1.26
2023-03-06T01:41:21.132Z,1.27
2023-03-06T01:43:47.625Z,1.24
2023-03-06T01:46:22.857Z,1.22
2023-03-06T01:48:54.006Z,1.21
2023-03-06T01:51:22.044Z,1.17
2023-03-06T01:53:51.034Z,1.15
2023-03-06T01:56:17.874Z,1.11
2023-03-06T01:58:45.058Z,1.08
2023-03-06T02:01:14.847Z,1.05
2023-03-06T02:03:42.775Z,1.01
2023-03-06T02:06:09.642Z,0.98
2023-03-06T02:08:36.267Z,0.97
2023-03-06T02:11:08.622Z,0.92
2023-03-06T02:13:36.299Z,0.92
2023-03-06T02:16:02.904Z,0.90
2023-03-06T02:18:30.162Z,0.86
2023-03-06T02:21:04.326Z,0.84
2023-03-06T02:23:51.039Z,0.85
2023-03-06T02:26:18.926Z,0.84
2023-03-06T02:28:46.682Z,0.82
2023-03-06T02:31:23.751Z,0.84
2023-03-06T02:34:06.225Z,0.84
2023-03-06T02:36:37.879Z,0.84
2023-03-06T02:39:05.559Z,0.84
2023-03-06T02:41:32.128Z,0.85
2023-03-06T02:43:58.611Z,0.88
2023-03-06T02:46:25.174Z,0.87
2023-03-06T02:48:51.687Z,0.90
2023-03-06T02:51:18.130Z,0.92
2023-03-06T02:53:44.588Z,0.97
2023-03-06T02:56:11.002Z,1.01
2023-03-06T02:58:37.626Z,1.03
2023-03-06T03:01:04.782Z,1.07
2023-03-06T03:03:33.044Z,1.10
2023-03-06T03:06:00.776Z,1.13
2023-03-06T03:08:28.380Z,1.16
2023-03-06T03:10:56.513Z,1.18
2023-03-06T03:13:23.447Z,1.18
2023-03-06T03:16:07.736Z,1.21
2023-03-06T03:18:35.405Z,1.23
2023-03-06T03:21:02.316Z,1.24
2023-03-06T03:23:28.799Z,1.23
2023-03-06T03:25:55.279Z,1.25
2023-03-06T03:28:21.727Z,1.26
2023-03-06T03:30:48.330Z,1.25
2023-03-06T03:33:14.815Z,1.26
2023-03-06T03:35:41.457Z,1.26
2023-03-06T03:38:07.870Z,1.26
2023-03-06T03:40:34.552Z,1.26
2023-03-06T03:43:01.080Z,1.28
2023-03-06T03:45:27.621Z,1.30
2023-03-06T03:47:54.008Z,1.31
2023-03-06T03:50:20.597Z,1.32
2023-03-06T03:52:47.104Z,1.32
2023-03-06T03:55:13.655Z,1.32
2023-03-06T03:57:40.216Z,1.33
2023-03-06T04:00:08.155Z,1.34
2023-03-06T04:02:34.698Z,1.36
2023-03-06T04:05:01.181Z,1.39
2023-03-06T04:07:27.656Z,1.40
2023-03-06T04:09:54.177Z,1.41
2023-03-06T04:12:20.678Z,1.41
2023-03-06T04:14:47.198Z,1.42
2023-03-06T04:17:13.706Z,1.44
2023-03-06T04:19:40.127Z,1.44
2023-03-06T04:22:06.570Z,1.46
2023-03-06T04:24:33.009Z,1.47
2023-03-06T04:26:59.520Z,1.46
2023-03-06T04:29:26.036Z,1.47
2023-03-06T04:31:52.507Z,1.49
2023-03-06T04:34:18.912Z,1.47
2023-03-06T04:36:45.350Z,1.48
2023-03-06T04:39:13.039Z,1.49
2023-03-06T04:41:40.694Z,1.50
2023-03-06T04:44:08.127Z,1.47
2023-03-06T04:46:34.826Z,1.48
2023-03-06T04:49:01.347Z,1.49
2023-03-06T04:51:27.993Z,1.48
2023-03-06T04:53:54.493Z,1.47
2023-03-06T04:56:20.918Z,1.51
2023-03-06T04:58:47.392Z,1.51
2023-03-06T05:01:13.948Z,1.54
2023-03-06T05:03:40.740Z,1.54
2023-03-06T05:06:07.429Z,1.55
2023-03-06T05:08:33.958Z,1.57
2023-03-06T05:11:01.914Z,1.58
2023-03-06T05:13:29.072Z,1.59
2023-03-06T05:15:55.676Z,1.60
2023-03-06T05:18:22.167Z,1.63
2023-03-06T05:20:48.733Z,1.66
2023-03-06T05:23:15.224Z,1.68
2023-03-06T05:25:42.299Z,1.70
2023-03-06T05:28:09.110Z,1.72
2023-03-06T05:30:35.897Z,1.73
2023-03-06T05:33:02.413Z,1.73
2023-03-06T05:35:28.952Z,1.73
2023-03-06T05:37:55.388Z,1.72
2023-03-06T05:40:22.378Z,1.72
2023-03-06T05:42:48.998Z,1.72
2023-03-06T05:45:15.614Z,1.70
2023-03-06T05:47:42.094Z,1.70
2023-03-06T05:50:10.465Z,1.68
2023-03-06T05:52:39.592Z,1.63
2023-03-06T05:55:07.404Z,1.59
2023-03-06T05:57:34.047Z,1.57
2023-03-06T06:00:00.618Z,1.56
2023-03-06T06:02:27.158Z,1.53
2023-03-06T06:04:53.640Z,1.52
2023-03-06T06:07:20.071Z,1.49
2023-03-06T06:09:46.640Z,1.50
2023-03-06T06:12:14.035Z,1.47
2023-03-06T06:14:40.531Z,1.48
2023-03-06T06:17:07.520Z,1.49
2023-03-06T06:19:34.020Z,1.50
2023-03-06T06:22:02.563Z,1.54
2023-03-06T06:24:29.554Z,1.56
2023-03-06T06:26:57.160Z,1.58
2023-03-06T06:29:25.410Z,1.63
2023-03-06T06:31:52.818Z,1.66
2023-03-06T06:34:20.387Z,1.69
2023-03-06T06:36:47.115Z,1.72
2023-03-06T06:39:18.003Z,1.76
2023-03-06T06:42:02.341Z,1.77
2023-03-06T06:44:31.791Z,1.81
2023-03-06T06:49:46.429Z,1.89
2023-03-06T06:52:12.874Z,1.94
2023-03-06T06:54:39.318Z,1.97
2023-03-06T06:57:05.781Z,2.02
2023-03-06T06:59:32.252Z,2.04
2023-03-06T07:01:58.736Z,2.09
2023-03-06T07:04:25.224Z,2.13
2023-03-06T07:06:55.626Z,2.15
2023-03-06T07:09:22.330Z,2.16
2023-03-06T07:11:48.853Z,2.20
2023-03-06T07:14:15.375Z,2.26
2023-03-06T07:16:41.984Z,2.27
2023-03-06T07:19:08.428Z,2.30
2023-03-06T07:21:34.986Z,2.33
2023-03-06T07:24:01.595Z,2.34
2023-03-06T07:26:28.645Z,2.38
2023-03-06T07:28:55.353Z,2.41
2023-03-06T07:31:24.760Z,2.44
2023-03-06T07:33:53.051Z,2.48
2023-03-06T07:36:20.896Z,2.50
2023-03-06T07:38:47.646Z,2.58
2023-03-06T07:41:16.307Z,2.65
2023-03-06T07:43:44.499Z,2.72
2023-03-06T07:46:12.782Z,2.81
2023-03-06T07:48:40.349Z,2.82
2023-03-06T07:51:18.679Z,2.81
2023-03-06T07:53:45.319Z,2.84
2023-03-06T07:56:12.887Z,2.92
2023-03-06T07:58:41.586Z,2.99
2023-03-06T08:01:10.956Z,3.03
2023-03-06T08:03:37.697Z,3.17
2023-03-06T08:06:12.179Z,3.22
2023-03-06T08:08:40.397Z,3.31
2023-03-06T08:11:08.580Z,3.31
2023-03-06T08:13:35.793Z,3.27
2023-03-06T08:16:02.824Z,3.29
2023-03-06T08:18:29.635Z,3.31
2023-03-06T08:21:07.694Z,3.33
2023-03-06T08:23:34.779Z,3.29
2023-03-06T08:26:10.559Z,3.33
2023-03-06T08:28:39.238Z,3.48
2023-03-06T08:31:23.813Z,3.46
2023-03-06T08:33:53.991Z,3.45
2023-03-06T08:36:20.547Z,3.39
2023-03-06T08:38:47.040Z,3.41
2023-03-06T08:41:13.510Z,3.49
2023-03-06T08:43:40.266Z,3.56
2023-03-06T08:46:06.873Z,3.54
2023-03-06T08:48:33.493Z,3.59
2023-03-06T08:50:59.957Z,3.67
2023-03-06T08:53:41.612Z,3.74
2023-03-06T08:56:18.474Z,3.90
2023-03-06T08:58:45.699Z,4.04
2023-03-06T09:01:21.186Z,4.13
2023-03-06T09:03:48.154Z,4.18
2023-03-06T09:06:15.204Z,4.12
2023-03-06T09:08:43.863Z,4.19
2023-03-06T09:11:12.697Z,4.16
2023-03-06T09:13:39.682Z,4.21
2023-03-06T09:16:06.830Z,4.31
2023-03-06T09:18:33.524Z,4.28
2023-03-06T09:21:00.134Z,4.27
2023-03-06T09:23:26.603Z,4.25
2023-03-06T09:25:54.317Z,4.51
2023-03-06T09:28:20.988Z,4.54
2023-03-06T09:30:47.892Z,4.55
2023-03-06T09:33:14.777Z,4.65
2023-03-06T09:35:49.215Z,4.67
2023-03-06T09:38:15.754Z,4.63
2023-03-06T09:40:55.444Z,4.65
2023-03-06T09:43:29.511Z,4.93
2023-03-06T09:45:57.333Z,4.85
2023-03-06T09:48:38.130Z,4.69
2023-03-06T09:51:15.065Z,4.58
2023-03-06T09:53:49.837Z,4.70
2023-03-06T09:56:19.644Z,4.85
2023-03-06T09:58:55.794Z,5.10
2023-03-06T10:01:27.949Z,5.32
2023-03-06T10:04:04.611Z,5.31
2023-03-06T10:06:41.311Z,5.10
2023-03-06T10:09:17.296Z,5.09
2023-03-06T10:11:51.430Z,5.29
2023-03-06T10:14:21.501Z,5.59
2023-03-06T10:16:48.133Z,5.46
2023-03-06T10:19:20.115Z,5.51
2023-03-06T10:22:06.017Z,5.61
2023-03-06T10:24:42.333Z,5.71
2023-03-06T10:27:27.633Z,5.88
2023-03-06T10:30:32.673Z,6.00
2023-03-06T10:33:33.512Z,5.89
2023-03-06T10:36:00.185Z,5.90
2023-03-06T10:38:37.649Z,5.99
2023-03-06T10:41:07.322Z,5.97
2023-03-06T10:43:36.552Z,6.01
2023-03-06T10:46:05.250Z,6.03
2023-03-06T10:48:35.968Z,6.04
2023-03-06T10:51:19.528Z,6.12
2023-03-06T10:53:52.075Z,6.06
2023-03-06T10:56:36.852Z,6.31
2023-03-06T10:59:35.687Z,6.44
2023-03-06T11:02:25.643Z,6.35
2023-03-06T11:04:54.232Z,6.10
2023-03-06T11:07:32.639Z,6.24
2023-03-06T11:10:01.758Z,6.45
2023-03-06T11:12:34.294Z,6.38
2023-03-06T11:15:07.245Z,6.30
2023-03-06T11:17:58.996Z,6.48
2023-03-06T11:20:44.621Z,6.52
2023-03-06T11:23:30.183Z,6.44
2023-03-06T11:26:03.083Z,6.37
2023-03-06T11:28:58.984Z,6.45
2023-03-06T11:31:37.097Z,6.61
2023-03-06T11:34:23.212Z,6.71
2023-03-06T11:37:08.406Z,6.90
2023-03-06T11:39:47.894Z,7.11
2023-03-06T11:42:17.291Z,7.11
2023-03-06T11:45:09.978Z,6.95
2023-03-06T11:47:48.424Z,6.98
2023-03-06T11:50:35.791Z,7.16
2023-03-06T11:53:05.183Z,7.37
2023-03-06T11:55:40.669Z,7.57
2023-03-06T11:58:44.590Z,7.44
2023-03-06T12:01:26.910Z,7.19
2023-03-06T12:04:23.239Z,7.19
2023-03-06T12:07:10.926Z,7.06
2023-03-06T12:09:55.029Z,7.02
2023-03-06T12:12:42.836Z,6.94
2023-03-06T12:15:45.832Z,7.02
2023-03-06T12:19:03.113Z,7.09
2023-03-06T12:22:00.036Z,7.16
2023-03-06T12:24:34.971Z,7.04
2023-03-06T12:27:04.569Z,6.95
2023-03-06T12:29:45.944Z,6.91
2023-03-06T12:32:31.163Z,7.20
2023-03-06T12:35:12.435Z,7.38
2023-03-06T12:37:55.065Z,7.42
2023-03-06T12:40:39.862Z,7.45
2023-03-06T12:43:10.253Z,7.51
2023-03-06T12:45:38.166Z,7.51
2023-03-06T12:48:14.769Z,7.55
2023-03-06T12:50:44.464Z,7.39
2023-03-06T12:53:29.898Z,7.12
2023-03-06T12:55:58.706Z,7.01
2023-03-06T12:58:28.223Z,6.98
2023-03-06T13:01:05.806Z,7.09
2023-03-06T13:04:00.225Z,7.26
2023-03-06T13:06:57.514Z,7.50
2023-03-06T13:09:53.816Z,7.50
2023-03-06T13:12:40.221Z,7.37
2023-03-06T13:15:31.524Z,7.42
2023-03-06T13:17:58.169Z,7.41
2023-03-06T13:20:38.347Z,7.34
2023-03-06T13:23:33.015Z,7.24
2023-03-06T13:26:00.457Z,7.19
2023-03-06T13:28:40.108Z,7.01
2023-03-06T13:31:10.627Z,7.25
2023-03-06T13:33:39.052Z,7.36
2023-03-06T13:36:30.362Z,7.41
2023-03-06T13:39:03.836Z,7.33
2023-03-06T13:41:30.349Z,7.34
2023-03-06T13:43:58.953Z,7.20
2023-03-06T13:46:30.871Z,7.16
2023-03-06T13:49:09.545Z,7.12
2023-03-06T13:51:38.924Z,7.06
2023-03-06T13:54:36.415Z,7.04
2023-03-06T13:57:21.687Z,7.05
2023-03-06T14:00:33.531Z,6.92
2023-03-06T14:03:08.987Z,6.90
2023-03-06T14:05:49.600Z,6.98
2023-03-06T14:08:30.271Z,6.94
2023-03-06T14:11:22.986Z,6.89
2023-03-06T14:13:55.552Z,6.97
2023-03-06T14:16:24.517Z,7.03
2023-03-06T14:18:53.772Z,7.03
2023-03-06T14:21:30.902Z,6.99
2023-03-06T14:24:03.183Z,6.87
2023-03-06T14:26:40.023Z,6.68
2023-03-06T14:29:28.224Z,6.62
2023-03-06T14:31:59.888Z,6.51
2023-03-06T14:34:29.948Z,6.32
2023-03-06T14:37:18.308Z,6.24
2023-03-06T14:39:45.479Z,6.13
2023-03-06T14:42:26.480Z,6.17
2023-03-06T14:45:13.556Z,6.24
2023-03-06T14:47:39.968Z,6.23
2023-03-06T14:50:40.926Z,6.14
2023-03-06T14:53:29.066Z,6.05
2023-03-06T14:56:01.611Z,5.75
2023-03-06T14:59:04.890Z,5.71
2023-03-06T15:01:38.395Z,5.84
2023-03-06T15:04:28.810Z,5.82
2023-03-06T15:06:56.622Z,5.67
2023-03-06T15:09:46.344Z,5.63
2023-03-06T15:12:19.737Z,5.78
2023-03-06T15:15:29.443Z,5.87
2023-03-06T15:17:56.146Z,6.01
2023-03-06T15:20:41.472Z,6.16
2023-03-06T15:23:24.550Z,6.06
2023-03-06T15:26:00.368Z,5.90
2023-03-06T15:28:38.616Z,5.94
2023-03-06T15:31:05.115Z,6.08
2023-03-06T15:33:31.619Z,6.11
2023-03-06T15:36:01.760Z,6.04
2023-03-06T15:38:41.751Z,5.91
2023-03-06T15:41:22.790Z,5.87
2023-03-06T15:43:49.398Z,5.84
2023-03-06T15:46:15.924Z,5.76
2023-03-06T15:49:13.909Z,5.72
2023-03-06T15:51:40.772Z,5.60
2023-03-06T15:54:12.310Z,5.58
2023-03-06T15:56:41.697Z,5.50
2023-03-06T15:59:15.347Z,5.43
2023-03-06T16:01:43.298Z,5.37
2023-03-06T16:04:09.967Z,5.33
2023-03-06T16:06:37.633Z,5.31
2023-03-06T16:09:05.759Z,5.36
2023-03-06T16:11:43.233Z,5.32
2023-03-06T16:14:21.023Z,5.22
2023-03-06T16:16:48.690Z,5.07
2023-03-06T16:19:28.137Z,4.89
2023-03-06T16:21:56.386Z,4.81
2023-03-06T16:24:23.544Z,4.70
2023-03-06T16:26:51.828Z,4.66
2023-03-06T16:29:23.468Z,4.62
2023-03-06T16:31:50.064Z,4.54
2023-03-06T16:34:19.634Z,4.51
2023-03-06T16:36:48.221Z,4.35
2023-03-06T16:39:16.997Z,4.39
2023-03-06T16:41:45.837Z,4.29
2023-03-06T16:44:12.980Z,4.25
2023-03-06T16:46:45.210Z,4.14
2023-03-06T16:49:22.823Z,4.12
2023-03-06T16:51:50.164Z,4.08
2023-03-06T16:54:17.328Z,4.07
2023-03-06T16:56:44.225Z,4.09
2023-03-06T16:59:11.966Z,4.04
2023-03-06T17:01:42.652Z,4.09
2023-03-06T17:04:09.447Z,4.10
2023-03-06T17:06:35.911Z,4.07
2023-03-06T17:09:02.368Z,3.93
2023-03-06T17:11:29.361Z,3.98
2023-03-06T17:13:55.879Z,3.99
2023-03-06T17:16:22.427Z,3.97
2023-03-06T17:18:49.596Z,3.90
2023-03-06T17:21:16.308Z,3.89
2023-03-06T17:23:43.096Z,3.77
2023-03-06T17:26:18.048Z,3.76
2023-03-06T17:28:45.501Z,3.74
2023-03-06T17:31:16.461Z,3.74
2023-03-06T17:33:43.652Z,3.74
2023-03-06T17:36:10.904Z,3.77
2023-03-06T17:38:37.631Z,3.77
2023-03-06T17:41:05.928Z,3.74
2023-03-06T17:43:33.556Z,3.76
2023-03-06T17:46:18.544Z,3.71
2023-03-06T17:48:45.390Z,3.74
2023-03-06T17:51:12.047Z,3.78
2023-03-06T17:53:39.339Z,3.73
2023-03-06T17:56:08.771Z,3.70
2023-03-06T17:58:35.408Z,3.69
2023-03-06T18:01:13.401Z,3.74
2023-03-06T18:03:44.372Z,3.76
2023-03-06T18:06:10.923Z,3.77
2023-03-06T18:08:38.055Z,3.73
2023-03-06T18:11:06.745Z,3.70
2023-03-06T18:13:34.690Z,3.67
2023-03-06T18:16:01.492Z,3.68
2023-03-06T18:18:28.438Z,3.69
2023-03-06T18:20:55.119Z,3.70
2023-03-06T18:23:21.724Z,3.68
2023-03-06T18:25:48.335Z,3.65
2023-03-06T18:28:14.724Z,3.61
2023-03-06T18:30:42.319Z,3.53
2023-03-06T18:33:09.834Z,3.47
2023-03-06T18:35:36.805Z,3.43
2023-03-06T18:38:03.557Z,3.39
2023-03-06T18:40:30.092Z,3.31
2023-03-06T18:42:56.686Z,3.29
2023-03-06T18:45:23.167Z,3.27
2023-03-06T18:47:49.586Z,3.21
2023-03-06T18:50:17.610Z,3.23
2023-03-06T18:52:44.751Z,3.25
2023-03-06T18:55:12.158Z,3.21
2023-03-06T18:57:39.161Z,3.16
2023-03-06T19:00:07.750Z,3.14
2023-03-06T19:02:34.537Z,3.16
2023-03-06T19:05:00.970Z,3.10
2023-03-06T19:07:27.425Z,3.07
2023-03-06T19:09:53.966Z,3.10
2023-03-06T19:12:20.595Z,3.05
2023-03-06T19:14:47.091Z,3.08
2023-03-06T19:17:13.571Z,3.03
2023-03-06T19:19:40.082Z,3.06
2023-03-06T19:22:06.558Z,3.01
2023-03-06T19:24:32.980Z,3.02
2023-03-06T19:26:59.404Z,3.01
2023-03-06T19:29:25.952Z,2.96
2023-03-06T19:31:52.486Z,2.95
2023-03-06T19:34:19.103Z,2.94
2023-03-06T19:36:45.526Z,2.92
2023-03-06T19:39:12.102Z,2.94
2023-03-06T19:41:38.517Z,2.92
2023-03-06T19:44:05.822Z,2.82
2023-03-06T19:46:32.449Z,2.79
2023-03-06T19:49:01.396Z,2.75
2023-03-06T19:51:28.985Z,2.78
2023-03-06T19:53:56.718Z,2.80
2023-03-06T19:56:28.988Z,2.77
2023-03-06T19:58:56.219Z,2.80
2023-03-06T20:01:24.885Z,2.81
2023-03-06T20:03:58.915Z,2.80
2023-03-06T20:06:27.905Z,2.82
2023-03-06T20:08:54.599Z,2.87
2023-03-06T20:11:26.618Z,2.88
2023-03-06T20:13:53.479Z,2.87
2023-03-06T20:16:20.320Z,2.89
2023-03-06T20:18:46.861Z,2.93
2023-03-06T20:21:14.534Z,2.95
2023-03-06T20:23:41.358Z,2.95
2023-03-06T20:26:10.697Z,2.96
2023-03-06T20:28:39.180Z,2.97
2023-03-06T20:31:16.309Z,2.98
2023-03-06T20:33:43.834Z,3.04
2023-03-06T20:36:24.434Z,3.13
2023-03-06T20:38:51.008Z,3.14
2023-03-06T20:41:20.720Z,3.16
2023-03-06T20:43:47.391Z,3.18
2023-03-06T20:46:14.378Z,3.18
2023-03-06T20:48:41.999Z,3.18
2023-03-06T20:51:21.047Z,3.21
2023-03-06T20:53:49.071Z,3.25
2023-03-06T20:56:20.241Z,3.28
2023-03-06T20:58:46.960Z,3.28
2023-03-06T21:01:27.510Z,3.33
2023-03-06T21:03:55.009Z,3.34
2023-03-06T21:06:21.498Z,3.33
2023-03-06T21:08:48.631Z,3.36
2023-03-06T21:11:16.129Z,3.40
2023-03-06T21:13:43.012Z,3.42
2023-03-06T21:16:15.269Z,3.42
2023-03-06T21:18:42.329Z,3.43
2023-03-06T21:21:11.304Z,3.45
2023-03-06T21:23:38.141Z,3.48
2023-03-06T21:26:05.512Z,3.49
2023-03-06T21:28:32.434Z,3.51
2023-03-06T21:31:02.490Z,3.50
2023-03-06T21:33:29.291Z,3.51
2023-03-06T21:35:55.798Z,3.52
2023-03-06T21:38:22.284Z,3.53
2023-03-06T21:40:48.697Z,3.54
2023-03-06T21:43:17.396Z,3.57
2023-03-06T21:45:46.053Z,3.59
2023-03-06T21:48:14.428Z,3.64
2023-03-06T21:50:41.418Z,3.68
2023-03-06T21:53:08.572Z,3.69
2023-03-06T21:55:38.816Z,3.70
2023-03-06T21:58:05.498Z,3.75
2023-03-06T22:00:36.072Z,3.78
2023-03-06T22:03:03.553Z,3.82
2023-03-06T22:05:31.905Z,3.84
2023-03-06T22:07:59.223Z,3.89
2023-03-06T22:10:25.736Z,3.92
2023-03-06T22:12:52.365Z,3.94
2023-03-06T22:15:21.738Z,3.94
2023-03-06T22:17:48.574Z,3.94
2023-03-06T22:20:15.447Z,3.91
2023-03-06T22:22:42.322Z,3.89
2023-03-06T22:25:09.221Z,3.89
2023-03-06T22:27:35.957Z,3.89
2023-03-06T22:30:02.525Z,3.91
2023-03-06T22:32:29.035Z,3.89
2023-03-06T22:34:55.490Z,3.89
2023-03-06T22:37:21.956Z,3.87
2023-03-06T22:39:48.438Z,3.87
2023-03-06T22:42:14.966Z,3.84
2023-03-06T22:44:41.437Z,3.81
2023-03-06T22:47:08.189Z,3.78
2023-03-06T22:49:34.837Z,3.75
2023-03-06T22:52:01.342Z,3.76
2023-03-06T22:54:27.761Z,3.75
2023-03-06T22:56:54.239Z,3.74
2023-03-06T22:59:20.627Z,3.71
2023-03-06T23:01:47.112Z,3.70
2023-03-06T23:04:13.627Z,3.69
2023-03-06T23:06:42.004Z,3.71
2023-03-06T23:09:20.452Z,3.70
2023-03-06T23:11:47.826Z,3.67
2023-03-06T23:14:15.525Z,3.65
2023-03-06T23:16:42.124Z,3.62
2023-03-06T23:19:08.857Z,3.60
2023-03-06T23:21:35.655Z,3.60
2023-03-06T23:24:02.842Z,3.56
2023-03-06T23:26:31.341Z,3.55
2023-03-06T23:28:58.117Z,3.56
2023-03-06T23:31:28.796Z,3.57
2023-03-06T23:34:00.341Z,3.59
2023-03-06T23:36:28.212Z,3.61
2023-03-06T23:38:55.010Z,3.62
2023-03-06T23:41:22.363Z,3.67
2023-03-06T23:43:49.601Z,3.72
2023-03-06T23:46:17.803Z,3.75
2023-03-06T23:48:44.988Z,3.81
2023-03-06T23:51:20.622Z,3.89
2023-03-06T23:53:52.680Z,3.95
2023-03-06T23:56:19.089Z,3.98
2023-03-06T23:58:45.742Z,3.99
